sensor_id;sensor_type;location;lat;lon;timestamp;temperature;humidity
17807;DHT22;9027;48.938;9.182;2022-12-26T00:00:21;9.30;99.90
17807;DHT22;9027;48.938;9.182;2022-12-26T00:01:53;9.30;99.90
17807;DHT22;9027;48.938;9.182;2022-12-26T00:03:24;9.30;99.90
17807;DHT22;9027;48.938;9.182;2022-12-26T00:04:57;9.30;99.90
17807;DHT22;9027;48.938;9.182;2022-12-26T00:06:30;9.10;99.90
17807;DHT22;9027;48.938;9.182;2022-12-26T00:08:02;9.00;99.90
17807;DHT22;9027;48.938;9.182;2022-12-26T00:09:34;9.10;99.90
17807;DHT22;9027;48.938;9.182;2022-12-26T00:11:06;9.10;99.90
17807;DHT22;9027;48.938;9.182;2022-12-26T00:12:37;9.10;99.90
17807;DHT22;9027;48.938;9.182;2022-12-26T00:14:10;9.10;99.90
17807;DHT22;9027;48.938;9.182;2022-12-26T00:15:42;9.10;99.90
17807;DHT22;9027;48.938;9.182;2022-12-26T00:17:14;9.10;99.90
17807;DHT22;9027;48.938;9.182;2022-12-26T00:18:46;9.10;99.90
17807;DHT22;9027;48.938;9.182;2022-12-26T00:20:19;9.10;99.90
17807;DHT22;9027;48.938;9.182;2022-12-26T00:21:50;9.20;99.90
17807;DHT22;9027;48.938;9.182;2022-12-26T00:23:21;9.30;99.90
17807;DHT22;9027;48.938;9.182;2022-12-26T00:24:53;9.30;99.90
17807;DHT22;9027;48.938;9.182;2022-12-26T00:26:27;9.30;99.90
17807;DHT22;9027;48.938;9.182;2022-12-26T00:28:00;9.30;99.90
17807;DHT22;9027;48.938;9.182;2022-12-26T00:29:32;9.30;99.90
17807;DHT22;9027;48.938;9.182;2022-12-26T00:31:05;9.40;99.90
17807;DHT22;9027;48.938;9.182;2022-12-26T00:32:36;9.40;99.90
17807;DHT22;9027;48.938;9.182;2022-12-26T00:34:08;9.40;99.90
17807;DHT22;9027;48.938;9.182;2022-12-26T00:35:42;9.30;99.90
17807;DHT22;9027;48.938;9.182;2022-12-26T00:37:14;9.40;99.90
17807;DHT22;9027;48.938;9.182;2022-12-26T00:38:46;9.50;99.90
17807;DHT22;9027;48.938;9.182;2022-12-26T00:40:18;9.40;99.90
17807;DHT22;9027;48.938;9.182;2022-12-26T00:41:49;9.40;99.90
17807;DHT22;9027;48.938;9.182;2022-12-26T00:43:21;9.40;99.90
17807;DHT22;9027;48.938;9.182;2022-12-26T00:44:52;9.40;99.90
17807;DHT22;9027;48.938;9.182;2022-12-26T00:46:25;9.40;99.90
17807;DHT22;9027;48.938;9.182;2022-12-26T00:47:56;9.30;99.90
17807;DHT22;9027;48.938;9.182;2022-12-26T00:49:27;9.40;99.90
17807;DHT22;9027;48.938;9.182;2022-12-26T00:51:01;9.50;99.90
17807;DHT22;9027;48.938;9.182;2022-12-26T00:52:33;9.50;99.90
17807;DHT22;9027;48.938;9.182;2022-12-26T00:54:05;9.60;99.90
17807;DHT22;9027;48.938;9.182;2022-12-26T00:55:37;9.70;99.90
17807;DHT22;9027;48.938;9.182;2022-12-26T00:57:08;9.70;99.90
17807;DHT22;9027;48.938;9.182;2022-12-26T00:58:40;9.70;99.90
17807;DHT22;9027;48.938;9.182;2022-12-26T01:00:13;9.70;99.90
17807;DHT22;9027;48.938;9.182;2022-12-26T01:01:45;9.70;99.90
17807;DHT22;9027;48.938;9.182;2022-12-26T01:03:18;9.70;99.90
17807;DHT22;9027;48.938;9.182;2022-12-26T01:04:49;9.60;99.90
17807;DHT22;9027;48.938;9.182;2022-12-26T01:06:22;9.60;99.90
17807;DHT22;9027;48.938;9.182;2022-12-26T01:07:54;9.70;99.90
17807;DHT22;9027;48.938;9.182;2022-12-26T01:09:25;9.80;99.90
17807;DHT22;9027;48.938;9.182;2022-12-26T01:11:00;9.80;99.90
17807;DHT22;9027;48.938;9.182;2022-12-26T01:12:31;9.70;99.90
17807;DHT22;9027;48.938;9.182;2022-12-26T01:14:03;9.60;99.90
17807;DHT22;9027;48.938;9.182;2022-12-26T01:15:36;9.60;99.90
17807;DHT22;9027;48.938;9.182;2022-12-26T01:17:06;9.50;99.90
17807;DHT22;9027;48.938;9.182;2022-12-26T01:18:38;9.50;99.90
17807;DHT22;9027;48.938;9.182;2022-12-26T01:20:11;9.50;99.90
17807;DHT22;9027;48.938;9.182;2022-12-26T01:21:43;9.40;99.90
17807;DHT22;9027;48.938;9.182;2022-12-26T01:23:15;9.50;99.90
17807;DHT22;9027;48.938;9.182;2022-12-26T01:24:46;9.50;99.90
17807;DHT22;9027;48.938;9.182;2022-12-26T01:26:18;9.50;99.90
17807;DHT22;9027;48.938;9.182;2022-12-26T01:27:51;9.50;99.90
17807;DHT22;9027;48.938;9.182;2022-12-26T01:29:22;9.50;99.90
17807;DHT22;9027;48.938;9.182;2022-12-26T01:30:53;9.50;99.90
17807;DHT22;9027;48.938;9.182;2022-12-26T01:32:25;9.60;99.90
17807;DHT22;9027;48.938;9.182;2022-12-26T01:33:56;9.60;99.90
17807;DHT22;9027;48.938;9.182;2022-12-26T01:35:28;9.60;99.90
17807;DHT22;9027;48.938;9.182;2022-12-26T01:37:00;9.60;99.90
17807;DHT22;9027;48.938;9.182;2022-12-26T01:38:32;9.60;99.90
17807;DHT22;9027;48.938;9.182;2022-12-26T01:40:05;9.60;99.90
17807;DHT22;9027;48.938;9.182;2022-12-26T01:41:36;9.60;99.90
17807;DHT22;9027;48.938;9.182;2022-12-26T01:43:09;9.50;99.90
17807;DHT22;9027;48.938;9.182;2022-12-26T01:44:58;9.50;99.90
17807;DHT22;9027;48.938;9.182;2022-12-26T01:46:32;9.40;99.90
17807;DHT22;9027;48.938;9.182;2022-12-26T01:48:14;9.40;99.90
17807;DHT22;9027;48.938;9.182;2022-12-26T01:49:51;9.50;99.90
17807;DHT22;9027;48.938;9.182;2022-12-26T01:51:25;9.50;99.90
17807;DHT22;9027;48.938;9.182;2022-12-26T01:53:03;9.50;99.90
17807;DHT22;9027;48.938;9.182;2022-12-26T01:54:37;9.50;99.90
17807;DHT22;9027;48.938;9.182;2022-12-26T01:56:10;9.40;99.90
17807;DHT22;9027;48.938;9.182;2022-12-26T01:57:55;9.40;99.90
17807;DHT22;9027;48.938;9.182;2022-12-26T01:59:29;9.40;99.90
17807;DHT22;9027;48.938;9.182;2022-12-26T02:01:04;9.40;99.90
17807;DHT22;9027;48.938;9.182;2022-12-26T02:02:38;9.30;99.90
17807;DHT22;9027;48.938;9.182;2022-12-26T02:04:26;9.30;99.90
17807;DHT22;9027;48.938;9.182;2022-12-26T02:06:17;9.30;99.90
17807;DHT22;9027;48.938;9.182;2022-12-26T02:07:49;9.20;99.90
17807;DHT22;9027;48.938;9.182;2022-12-26T02:09:21;9.30;99.90
17807;DHT22;9027;48.938;9.182;2022-12-26T02:10:57;9.30;99.90
17807;DHT22;9027;48.938;9.182;2022-12-26T02:12:32;9.30;99.90
17807;DHT22;9027;48.938;9.182;2022-12-26T02:14:06;9.30;99.90
17807;DHT22;9027;48.938;9.182;2022-12-26T02:15:37;9.20;99.90
17807;DHT22;9027;48.938;9.182;2022-12-26T02:17:10;9.20;99.90
17807;DHT22;9027;48.938;9.182;2022-12-26T02:18:42;9.20;99.90
17807;DHT22;9027;48.938;9.182;2022-12-26T02:20:18;9.30;99.90
17807;DHT22;9027;48.938;9.182;2022-12-26T02:26:32;9.20;99.90
17807;DHT22;9027;48.938;9.182;2022-12-26T02:30:32;9.10;99.90
17807;DHT22;9027;48.938;9.182;2022-12-26T02:32:12;9.20;99.90
17807;DHT22;9027;48.938;9.182;2022-12-26T02:33:54;9.20;99.90
17807;DHT22;9027;48.938;9.182;2022-12-26T02:35:41;9.20;99.90
17807;DHT22;9027;48.938;9.182;2022-12-26T02:37:23;9.10;99.90
17807;DHT22;9027;48.938;9.182;2022-12-26T02:39:08;9.10;99.90
17807;DHT22;9027;48.938;9.182;2022-12-26T02:40:52;9.20;99.90
17807;DHT22;9027;48.938;9.182;2022-12-26T02:42:34;9.10;99.90
17807;DHT22;9027;48.938;9.182;2022-12-26T02:44:13;9.20;99.90
17807;DHT22;9027;48.938;9.182;2022-12-26T02:46:14;9.10;99.90
17807;DHT22;9027;48.938;9.182;2022-12-26T02:48:08;9.00;99.90
17807;DHT22;9027;48.938;9.182;2022-12-26T02:49:58;9.00;99.90
17807;DHT22;9027;48.938;9.182;2022-12-26T02:51:55;9.10;99.90
17807;DHT22;9027;48.938;9.182;2022-12-26T02:53:54;9.10;99.90
17807;DHT22;9027;48.938;9.182;2022-12-26T02:55:51;9.10;99.90
17807;DHT22;9027;48.938;9.182;2022-12-26T02:58:00;9.20;99.90
17807;DHT22;9027;48.938;9.182;2022-12-26T02:59:54;9.20;99.90
17807;DHT22;9027;48.938;9.182;2022-12-26T03:01:50;9.20;99.90
17807;DHT22;9027;48.938;9.182;2022-12-26T03:03:43;9.20;99.90
17807;DHT22;9027;48.938;9.182;2022-12-26T03:05:35;9.20;99.90
17807;DHT22;9027;48.938;9.182;2022-12-26T03:07:28;9.20;99.90
17807;DHT22;9027;48.938;9.182;2022-12-26T03:09:17;9.30;99.90
17807;DHT22;9027;48.938;9.182;2022-12-26T03:11:08;9.20;99.90
17807;DHT22;9027;48.938;9.182;2022-12-26T03:13:02;9.30;99.90
17807;DHT22;9027;48.938;9.182;2022-12-26T03:14:49;9.20;99.90
17807;DHT22;9027;48.938;9.182;2022-12-26T03:16:24;9.30;99.90
17807;DHT22;9027;48.938;9.182;2022-12-26T03:18:16;9.30;99.90
17807;DHT22;9027;48.938;9.182;2022-12-26T03:19:51;9.30;99.90
17807;DHT22;9027;48.938;9.182;2022-12-26T03:21:35;9.30;99.90
17807;DHT22;9027;48.938;9.182;2022-12-26T03:23:10;9.30;99.90
17807;DHT22;9027;48.938;9.182;2022-12-26T03:24:43;9.30;99.90
17807;DHT22;9027;48.938;9.182;2022-12-26T03:26:31;9.20;99.90
17807;DHT22;9027;48.938;9.182;2022-12-26T03:28:16;9.10;99.90
17807;DHT22;9027;48.938;9.182;2022-12-26T03:29:47;9.00;99.90
17807;DHT22;9027;48.938;9.182;2022-12-26T03:31:37;9.00;99.90
17807;DHT22;9027;48.938;9.182;2022-12-26T03:33:09;9.00;99.90
17807;DHT22;9027;48.938;9.182;2022-12-26T03:35:10;9.00;99.90
17807;DHT22;9027;48.938;9.182;2022-12-26T03:36:54;9.00;99.90
17807;DHT22;9027;48.938;9.182;2022-12-26T03:38:30;9.10;99.90
17807;DHT22;9027;48.938;9.182;2022-12-26T03:40:13;9.10;99.90
17807;DHT22;9027;48.938;9.182;2022-12-26T03:42:08;9.10;99.90
17807;DHT22;9027;48.938;9.182;2022-12-26T03:44:12;9.00;99.90
17807;DHT22;9027;48.938;9.182;2022-12-26T03:46:13;9.10;99.90
17807;DHT22;9027;48.938;9.182;2022-12-26T03:48:13;9.00;99.90
17807;DHT22;9027;48.938;9.182;2022-12-26T03:50:12;9.10;99.90
17807;DHT22;9027;48.938;9.182;2022-12-26T03:52:06;9.00;99.90
17807;DHT22;9027;48.938;9.182;2022-12-26T03:54:04;9.00;99.90
17807;DHT22;9027;48.938;9.182;2022-12-26T03:55:59;9.10;99.90
17807;DHT22;9027;48.938;9.182;2022-12-26T03:57:52;9.00;99.90
17807;DHT22;9027;48.938;9.182;2022-12-26T03:59:54;9.10;99.90
17807;DHT22;9027;48.938;9.182;2022-12-26T04:01:46;9.00;99.90
17807;DHT22;9027;48.938;9.182;2022-12-26T04:03:39;9.10;99.90
17807;DHT22;9027;48.938;9.182;2022-12-26T04:05:32;9.10;99.90
17807;DHT22;9027;48.938;9.182;2022-12-26T04:07:23;9.20;99.90
17807;DHT22;9027;48.938;9.182;2022-12-26T04:09:18;9.20;99.90
17807;DHT22;9027;48.938;9.182;2022-12-26T04:11:11;9.20;99.90
17807;DHT22;9027;48.938;9.182;2022-12-26T04:13:03;9.30;99.90
17807;DHT22;9027;48.938;9.182;2022-12-26T04:15:02;9.20;99.90
17807;DHT22;9027;48.938;9.182;2022-12-26T04:16:58;9.20;99.90
17807;DHT22;9027;48.938;9.182;2022-12-26T04:18:54;9.20;99.90
17807;DHT22;9027;48.938;9.182;2022-12-26T04:20:53;9.10;99.90
17807;DHT22;9027;48.938;9.182;2022-12-26T04:22:35;9.20;99.90
17807;DHT22;9027;48.938;9.182;2022-12-26T04:24:31;9.30;99.90
17807;DHT22;9027;48.938;9.182;2022-12-26T04:26:26;9.20;99.90
17807;DHT22;9027;48.938;9.182;2022-12-26T04:28:16;9.20;99.90
17807;DHT22;9027;48.938;9.182;2022-12-26T04:30:06;9.30;99.90
17807;DHT22;9027;48.938;9.182;2022-12-26T04:32:00;9.30;99.90
17807;DHT22;9027;48.938;9.182;2022-12-26T04:33:52;9.40;99.90
17807;DHT22;9027;48.938;9.182;2022-12-26T04:35:49;9.40;99.90
17807;DHT22;9027;48.938;9.182;2022-12-26T04:37:41;9.50;99.90
17807;DHT22;9027;48.938;9.182;2022-12-26T04:39:33;9.50;99.90
17807;DHT22;9027;48.938;9.182;2022-12-26T04:41:24;9.50;99.90
17807;DHT22;9027;48.938;9.182;2022-12-26T04:43:16;9.50;99.90
17807;DHT22;9027;48.938;9.182;2022-12-26T04:45:07;9.50;99.90
17807;DHT22;9027;48.938;9.182;2022-12-26T04:46:41;9.50;99.90
17807;DHT22;9027;48.938;9.182;2022-12-26T04:48:14;9.50;99.90
17807;DHT22;9027;48.938;9.182;2022-12-26T04:50:04;9.50;99.90
17807;DHT22;9027;48.938;9.182;2022-12-26T04:51:43;9.50;99.90
17807;DHT22;9027;48.938;9.182;2022-12-26T04:53:14;9.50;99.90
17807;DHT22;9027;48.938;9.182;2022-12-26T04:54:45;9.40;99.90
17807;DHT22;9027;48.938;9.182;2022-12-26T04:56:17;9.40;99.90
17807;DHT22;9027;48.938;9.182;2022-12-26T04:57:48;9.40;99.90
17807;DHT22;9027;48.938;9.182;2022-12-26T04:59:20;9.40;99.90
17807;DHT22;9027;48.938;9.182;2022-12-26T05:00:53;9.50;99.90
17807;DHT22;9027;48.938;9.182;2022-12-26T05:02:44;9.50;99.90
17807;DHT22;9027;48.938;9.182;2022-12-26T05:04:33;9.50;99.90
17807;DHT22;9027;48.938;9.182;2022-12-26T05:06:23;9.60;99.90
17807;DHT22;9027;48.938;9.182;2022-12-26T05:08:21;9.60;99.90
17807;DHT22;9027;48.938;9.182;2022-12-26T05:10:17;9.60;99.90
17807;DHT22;9027;48.938;9.182;2022-12-26T05:11:49;9.60;99.90
17807;DHT22;9027;48.938;9.182;2022-12-26T05:13:20;9.60;99.90
17807;DHT22;9027;48.938;9.182;2022-12-26T05:14:52;9.60;99.90
17807;DHT22;9027;48.938;9.182;2022-12-26T05:16:25;9.70;99.90
17807;DHT22;9027;48.938;9.182;2022-12-26T05:18:15;9.70;99.90
17807;DHT22;9027;48.938;9.182;2022-12-26T05:20:05;9.70;99.90
17807;DHT22;9027;48.938;9.182;2022-12-26T05:21:54;9.70;99.90
17807;DHT22;9027;48.938;9.182;2022-12-26T05:23:46;9.80;99.90
17807;DHT22;9027;48.938;9.182;2022-12-26T05:25:40;9.80;99.90
17807;DHT22;9027;48.938;9.182;2022-12-26T05:27:34;9.70;99.90
17807;DHT22;9027;48.938;9.182;2022-12-26T05:29:24;9.70;99.90
17807;DHT22;9027;48.938;9.182;2022-12-26T05:30:57;9.60;99.90
17807;DHT22;9027;48.938;9.182;2022-12-26T05:32:29;9.60;99.90
17807;DHT22;9027;48.938;9.182;2022-12-26T05:34:18;9.50;99.90
17807;DHT22;9027;48.938;9.182;2022-12-26T05:35:50;9.60;99.90
17807;DHT22;9027;48.938;9.182;2022-12-26T05:37:23;9.50;99.90
17807;DHT22;9027;48.938;9.182;2022-12-26T05:38:56;9.50;99.90
17807;DHT22;9027;48.938;9.182;2022-12-26T05:40:28;9.50;99.90
17807;DHT22;9027;48.938;9.182;2022-12-26T05:42:00;9.50;99.90
17807;DHT22;9027;48.938;9.182;2022-12-26T05:43:33;9.60;99.90
17807;DHT22;9027;48.938;9.182;2022-12-26T05:45:04;9.50;99.90
17807;DHT22;9027;48.938;9.182;2022-12-26T05:46:37;9.60;99.90
17807;DHT22;9027;48.938;9.182;2022-12-26T05:48:09;9.60;99.90
17807;DHT22;9027;48.938;9.182;2022-12-26T05:49:41;9.60;99.90
17807;DHT22;9027;48.938;9.182;2022-12-26T05:51:12;9.60;99.90
17807;DHT22;9027;48.938;9.182;2022-12-26T05:52:44;9.60;99.90
17807;DHT22;9027;48.938;9.182;2022-12-26T05:54:17;9.60;99.90
17807;DHT22;9027;48.938;9.182;2022-12-26T05:55:51;9.70;99.90
17807;DHT22;9027;48.938;9.182;2022-12-26T05:57:22;9.80;99.90
17807;DHT22;9027;48.938;9.182;2022-12-26T05:58:54;9.80;99.90
17807;DHT22;9027;48.938;9.182;2022-12-26T06:00:26;9.80;99.90
17807;DHT22;9027;48.938;9.182;2022-12-26T06:01:58;9.80;99.90
17807;DHT22;9027;48.938;9.182;2022-12-26T06:03:30;9.80;99.90
17807;DHT22;9027;48.938;9.182;2022-12-26T06:05:01;9.80;99.90
17807;DHT22;9027;48.938;9.182;2022-12-26T06:06:33;9.80;99.90
17807;DHT22;9027;48.938;9.182;2022-12-26T06:08:05;9.90;99.90
17807;DHT22;9027;48.938;9.182;2022-12-26T06:09:37;9.90;99.90
17807;DHT22;9027;48.938;9.182;2022-12-26T06:11:11;9.90;99.90
17807;DHT22;9027;48.938;9.182;2022-12-26T06:12:43;9.90;99.90
17807;DHT22;9027;48.938;9.182;2022-12-26T06:14:15;10.00;99.90
17807;DHT22;9027;48.938;9.182;2022-12-26T06:15:47;10.00;99.90
17807;DHT22;9027;48.938;9.182;2022-12-26T06:17:19;10.00;99.90
17807;DHT22;9027;48.938;9.182;2022-12-26T06:18:53;10.00;99.90
17807;DHT22;9027;48.938;9.182;2022-12-26T06:20:25;10.10;99.90
17807;DHT22;9027;48.938;9.182;2022-12-26T06:21:56;10.00;99.90
17807;DHT22;9027;48.938;9.182;2022-12-26T06:23:28;10.10;99.90
17807;DHT22;9027;48.938;9.182;2022-12-26T06:25:01;10.00;99.90
17807;DHT22;9027;48.938;9.182;2022-12-26T06:26:33;10.00;99.90
17807;DHT22;9027;48.938;9.182;2022-12-26T06:28:05;10.00;99.90
17807;DHT22;9027;48.938;9.182;2022-12-26T06:29:36;10.00;99.90
17807;DHT22;9027;48.938;9.182;2022-12-26T06:31:11;10.10;99.90
17807;DHT22;9027;48.938;9.182;2022-12-26T06:32:44;10.10;99.90
17807;DHT22;9027;48.938;9.182;2022-12-26T06:34:16;10.20;99.90
17807;DHT22;9027;48.938;9.182;2022-12-26T06:35:47;10.20;99.90
17807;DHT22;9027;48.938;9.182;2022-12-26T06:37:19;10.20;99.90
17807;DHT22;9027;48.938;9.182;2022-12-26T06:38:52;10.20;99.90
17807;DHT22;9027;48.938;9.182;2022-12-26T06:40:25;10.10;99.90
17807;DHT22;9027;48.938;9.182;2022-12-26T06:41:57;10.10;99.90
17807;DHT22;9027;48.938;9.182;2022-12-26T06:43:29;10.10;99.90
17807;DHT22;9027;48.938;9.182;2022-12-26T06:45:01;10.10;99.90
17807;DHT22;9027;48.938;9.182;2022-12-26T06:46:34;10.10;99.90
17807;DHT22;9027;48.938;9.182;2022-12-26T06:48:05;10.10;99.90
17807;DHT22;9027;48.938;9.182;2022-12-26T06:49:36;10.10;99.90
17807;DHT22;9027;48.938;9.182;2022-12-26T06:51:10;10.10;99.90
17807;DHT22;9027;48.938;9.182;2022-12-26T06:52:42;10.10;99.90
17807;DHT22;9027;48.938;9.182;2022-12-26T06:54:14;10.10;99.90
17807;DHT22;9027;48.938;9.182;2022-12-26T06:55:48;10.20;99.90
17807;DHT22;9027;48.938;9.182;2022-12-26T06:57:19;10.10;99.90
17807;DHT22;9027;48.938;9.182;2022-12-26T06:58:52;10.20;99.90
17807;DHT22;9027;48.938;9.182;2022-12-26T07:00:24;10.20;99.90
17807;DHT22;9027;48.938;9.182;2022-12-26T07:01:56;10.10;99.90
17807;DHT22;9027;48.938;9.182;2022-12-26T07:03:27;10.00;99.90
17807;DHT22;9027;48.938;9.182;2022-12-26T07:04:59;10.00;99.90
17807;DHT22;9027;48.938;9.182;2022-12-26T07:06:33;10.00;99.90
17807;DHT22;9027;48.938;9.182;2022-12-26T07:08:05;9.90;99.90
17807;DHT22;9027;48.938;9.182;2022-12-26T07:09:37;10.00;99.90
17807;DHT22;9027;48.938;9.182;2022-12-26T07:11:13;10.00;99.90
17807;DHT22;9027;48.938;9.182;2022-12-26T07:12:45;10.10;99.90
17807;DHT22;9027;48.938;9.182;2022-12-26T07:14:17;10.20;99.90
17807;DHT22;9027;48.938;9.182;2022-12-26T07:15:49;10.10;99.90
17807;DHT22;9027;48.938;9.182;2022-12-26T07:17:20;10.20;99.90
17807;DHT22;9027;48.938;9.182;2022-12-26T07:18:52;10.20;99.90
17807;DHT22;9027;48.938;9.182;2022-12-26T07:20:25;10.10;99.90
17807;DHT22;9027;48.938;9.182;2022-12-26T07:21:56;10.20;99.90
17807;DHT22;9027;48.938;9.182;2022-12-26T07:23:28;10.10;99.90
17807;DHT22;9027;48.938;9.182;2022-12-26T07:25:01;10.20;99.90
17807;DHT22;9027;48.938;9.182;2022-12-26T07:26:34;10.20;99.90
17807;DHT22;9027;48.938;9.182;2022-12-26T07:28:05;10.20;99.90
17807;DHT22;9027;48.938;9.182;2022-12-26T07:29:37;10.20;99.90
17807;DHT22;9027;48.938;9.182;2022-12-26T07:31:09;10.20;99.90
17807;DHT22;9027;48.938;9.182;2022-12-26T07:32:45;10.20;99.90
17807;DHT22;9027;48.938;9.182;2022-12-26T07:34:16;10.10;99.90
17807;DHT22;9027;48.938;9.182;2022-12-26T07:35:47;10.10;99.90
17807;DHT22;9027;48.938;9.182;2022-12-26T07:37:19;10.10;99.90
17807;DHT22;9027;48.938;9.182;2022-12-26T07:38:51;10.00;99.90
17807;DHT22;9027;48.938;9.182;2022-12-26T07:40:23;9.90;99.90
17807;DHT22;9027;48.938;9.182;2022-12-26T07:41:56;10.00;99.90
17807;DHT22;9027;48.938;9.182;2022-12-26T07:43:27;10.00;99.90
17807;DHT22;9027;48.938;9.182;2022-12-26T07:44:59;10.00;99.90
17807;DHT22;9027;48.938;9.182;2022-12-26T07:46:31;10.10;99.90
17807;DHT22;9027;48.938;9.182;2022-12-26T07:48:03;10.10;99.90
17807;DHT22;9027;48.938;9.182;2022-12-26T07:49:35;10.20;99.90
17807;DHT22;9027;48.938;9.182;2022-12-26T07:51:07;10.30;99.90
17807;DHT22;9027;48.938;9.182;2022-12-26T07:52:39;10.30;99.90
17807;DHT22;9027;48.938;9.182;2022-12-26T07:54:11;10.30;99.90
17807;DHT22;9027;48.938;9.182;2022-12-26T07:55:43;10.30;99.90
17807;DHT22;9027;48.938;9.182;2022-12-26T07:57:16;10.40;99.90
17807;DHT22;9027;48.938;9.182;2022-12-26T07:58:48;10.30;99.90
17807;DHT22;9027;48.938;9.182;2022-12-26T08:00:20;10.40;99.90
17807;DHT22;9027;48.938;9.182;2022-12-26T08:01:52;10.40;99.90
17807;DHT22;9027;48.938;9.182;2022-12-26T08:03:27;10.40;99.90
17807;DHT22;9027;48.938;9.182;2022-12-26T08:04:59;10.30;99.90
17807;DHT22;9027;48.938;9.182;2022-12-26T08:06:31;10.30;99.90
17807;DHT22;9027;48.938;9.182;2022-12-26T08:08:03;10.20;99.90
17807;DHT22;9027;48.938;9.182;2022-12-26T08:09:35;10.20;99.90
17807;DHT22;9027;48.938;9.182;2022-12-26T08:11:13;10.20;99.90
17807;DHT22;9027;48.938;9.182;2022-12-26T08:12:46;10.20;99.90
17807;DHT22;9027;48.938;9.182;2022-12-26T08:14:17;10.20;99.90
17807;DHT22;9027;48.938;9.182;2022-12-26T08:15:49;10.30;99.90
17807;DHT22;9027;48.938;9.182;2022-12-26T08:17:21;10.40;99.90
17807;DHT22;9027;48.938;9.182;2022-12-26T08:18:53;10.50;99.90
17807;DHT22;9027;48.938;9.182;2022-12-26T08:20:25;10.60;99.90
17807;DHT22;9027;48.938;9.182;2022-12-26T08:21:57;10.60;99.90
17807;DHT22;9027;48.938;9.182;2022-12-26T08:23:29;10.60;99.90
17807;DHT22;9027;48.938;9.182;2022-12-26T08:25:01;10.60;99.90
17807;DHT22;9027;48.938;9.182;2022-12-26T08:26:33;10.60;99.90
17807;DHT22;9027;48.938;9.182;2022-12-26T08:28:06;10.60;99.90
17807;DHT22;9027;48.938;9.182;2022-12-26T08:29:38;10.70;99.90
17807;DHT22;9027;48.938;9.182;2022-12-26T08:31:11;10.70;99.90
17807;DHT22;9027;48.938;9.182;2022-12-26T08:32:44;10.70;99.90
17807;DHT22;9027;48.938;9.182;2022-12-26T08:34:16;10.70;99.90
17807;DHT22;9027;48.938;9.182;2022-12-26T08:35:47;10.80;99.90
17807;DHT22;9027;48.938;9.182;2022-12-26T08:37:19;10.70;99.90
17807;DHT22;9027;48.938;9.182;2022-12-26T08:38:53;10.70;99.90
17807;DHT22;9027;48.938;9.182;2022-12-26T08:40:25;10.50;99.90
17807;DHT22;9027;48.938;9.182;2022-12-26T08:41:57;10.40;99.90
17807;DHT22;9027;48.938;9.182;2022-12-26T08:43:31;10.40;99.90
17807;DHT22;9027;48.938;9.182;2022-12-26T08:45:03;10.50;99.90
17807;DHT22;9027;48.938;9.182;2022-12-26T08:46:35;10.40;99.90
17807;DHT22;9027;48.938;9.182;2022-12-26T08:48:07;10.40;99.90
17807;DHT22;9027;48.938;9.182;2022-12-26T08:49:39;10.50;99.90
17807;DHT22;9027;48.938;9.182;2022-12-26T08:51:14;10.60;99.90
17807;DHT22;9027;48.938;9.182;2022-12-26T08:52:46;10.60;99.90
17807;DHT22;9027;48.938;9.182;2022-12-26T08:54:18;10.60;99.90
17807;DHT22;9027;48.938;9.182;2022-12-26T08:55:50;10.60;99.90
17807;DHT22;9027;48.938;9.182;2022-12-26T08:57:21;10.60;99.90
17807;DHT22;9027;48.938;9.182;2022-12-26T08:58:54;10.60;99.90
17807;DHT22;9027;48.938;9.182;2022-12-26T09:00:26;10.50;99.90
17807;DHT22;9027;48.938;9.182;2022-12-26T09:01:58;10.50;99.90
17807;DHT22;9027;48.938;9.182;2022-12-26T09:03:30;10.60;99.90
17807;DHT22;9027;48.938;9.182;2022-12-26T09:05:02;10.50;99.90
17807;DHT22;9027;48.938;9.182;2022-12-26T09:06:36;10.40;99.90
17807;DHT22;9027;48.938;9.182;2022-12-26T09:08:08;10.40;99.90
17807;DHT22;9027;48.938;9.182;2022-12-26T09:09:39;10.40;99.90
17807;DHT22;9027;48.938;9.182;2022-12-26T09:11:13;10.40;99.90
17807;DHT22;9027;48.938;9.182;2022-12-26T09:12:45;10.40;99.90
17807;DHT22;9027;48.938;9.182;2022-12-26T09:14:18;10.40;99.90
17807;DHT22;9027;48.938;9.182;2022-12-26T09:15:50;10.40;99.90
17807;DHT22;9027;48.938;9.182;2022-12-26T09:17:21;10.40;99.90
17807;DHT22;9027;48.938;9.182;2022-12-26T09:18:57;10.50;99.90
17807;DHT22;9027;48.938;9.182;2022-12-26T09:20:29;10.50;99.90
17807;DHT22;9027;48.938;9.182;2022-12-26T09:22:03;10.60;99.90
17807;DHT22;9027;48.938;9.182;2022-12-26T09:23:55;10.70;99.90
17807;DHT22;9027;48.938;9.182;2022-12-26T09:25:28;10.70;99.90
17807;DHT22;9027;48.938;9.182;2022-12-26T09:27:00;10.80;99.90
17807;DHT22;9027;48.938;9.182;2022-12-26T09:28:32;10.80;99.90
17807;DHT22;9027;48.938;9.182;2022-12-26T09:30:06;10.80;99.90
17807;DHT22;9027;48.938;9.182;2022-12-26T09:31:38;10.80;99.90
17807;DHT22;9027;48.938;9.182;2022-12-26T09:33:11;10.80;99.90
17807;DHT22;9027;48.938;9.182;2022-12-26T09:34:43;10.80;99.90
17807;DHT22;9027;48.938;9.182;2022-12-26T09:36:17;10.90;99.90
17807;DHT22;9027;48.938;9.182;2022-12-26T09:37:48;10.80;99.90
17807;DHT22;9027;48.938;9.182;2022-12-26T09:39:20;10.90;99.90
17807;DHT22;9027;48.938;9.182;2022-12-26T09:41:14;11.10;99.90
17807;DHT22;9027;48.938;9.182;2022-12-26T09:42:59;11.20;99.90
17807;DHT22;9027;48.938;9.182;2022-12-26T09:44:44;11.40;99.90
17807;DHT22;9027;48.938;9.182;2022-12-26T09:46:29;11.60;99.90
17807;DHT22;9027;48.938;9.182;2022-12-26T09:48:05;11.80;99.90
17807;DHT22;9027;48.938;9.182;2022-12-26T09:49:47;12.00;99.90
17807;DHT22;9027;48.938;9.182;2022-12-26T09:51:21;12.10;99.90
17807;DHT22;9027;48.938;9.182;2022-12-26T09:52:55;12.20;99.90
17807;DHT22;9027;48.938;9.182;2022-12-26T09:54:32;12.40;99.90
17807;DHT22;9027;48.938;9.182;2022-12-26T09:56:06;12.50;99.90
17807;DHT22;9027;48.938;9.182;2022-12-26T09:57:44;12.60;99.90
17807;DHT22;9027;48.938;9.182;2022-12-26T09:59:18;12.70;99.90
17807;DHT22;9027;48.938;9.182;2022-12-26T10:00:59;12.80;99.90
17807;DHT22;9027;48.938;9.182;2022-12-26T10:02:33;12.80;99.90
17807;DHT22;9027;48.938;9.182;2022-12-26T10:04:08;12.90;99.90
17807;DHT22;9027;48.938;9.182;2022-12-26T10:05:54;12.90;99.90
17807;DHT22;9027;48.938;9.182;2022-12-26T10:07:33;12.70;99.90
17807;DHT22;9027;48.938;9.182;2022-12-26T10:09:29;12.50;99.90
17807;DHT22;9027;48.938;9.182;2022-12-26T10:11:07;12.40;99.90
17807;DHT22;9027;48.938;9.182;2022-12-26T10:12:55;12.20;99.90
17807;DHT22;9027;48.938;9.182;2022-12-26T10:14:39;11.90;99.90
17807;DHT22;9027;48.938;9.182;2022-12-26T10:16:15;11.80;99.90
17807;DHT22;9027;48.938;9.182;2022-12-26T10:17:56;11.70;99.90
17807;DHT22;9027;48.938;9.182;2022-12-26T10:19:42;11.60;99.90
17807;DHT22;9027;48.938;9.182;2022-12-26T10:21:27;11.60;99.90
17807;DHT22;9027;48.938;9.182;2022-12-26T10:23:32;11.60;99.90
17807;DHT22;9027;48.938;9.182;2022-12-26T10:25:13;11.50;99.90
17807;DHT22;9027;48.938;9.182;2022-12-26T10:26:48;11.50;99.90
17807;DHT22;9027;48.938;9.182;2022-12-26T10:28:29;11.50;99.90
17807;DHT22;9027;48.938;9.182;2022-12-26T10:30:05;11.50;99.90
17807;DHT22;9027;48.938;9.182;2022-12-26T10:31:41;11.40;99.90
17807;DHT22;9027;48.938;9.182;2022-12-26T10:33:19;11.40;99.90
17807;DHT22;9027;48.938;9.182;2022-12-26T10:34:53;11.40;99.90
17807;DHT22;9027;48.938;9.182;2022-12-26T10:36:32;11.40;99.90
17807;DHT22;9027;48.938;9.182;2022-12-26T10:38:11;11.50;99.90